sensor_id;sensor_type;location;lat;lon;timestamp;temperature;humidity
35463;DHT22;21578;47.892;9.970;2022-12-29T08:24:02;6.80;81.90
35463;DHT22;21578;47.892;9.970;2022-12-29T08:28:52;6.90;81.50
35463;DHT22;21578;47.892;9.970;2022-12-29T08:33:40;6.80;81.40
35463;DHT22;21578;47.892;9.970;2022-12-29T08:38:28;6.80;81.40
35463;DHT22;21578;47.892;9.970;2022-12-29T08:43:16;6.90;80.70
35463;DHT22;21578;47.892;9.970;2022-12-29T08:48:04;7.00;79.90
35463;DHT22;21578;47.892;9.970;2022-12-29T08:52:51;7.00;79.10
35463;DHT22;21578;47.892;9.970;2022-12-29T08:57:38;7.10;79.20
35463;DHT22;21578;47.892;9.970;2022-12-29T09:02:27;7.10;79.10
35463;DHT22;21578;47.892;9.970;2022-12-29T09:07:14;7.10;78.10
35463;DHT22;21578;47.892;9.970;2022-12-29T09:12:01;7.10;78.20
35463;DHT22;21578;47.892;9.970;2022-12-29T09:16:50;7.10;78.30
35463;DHT22;21578;47.892;9.970;2022-12-29T09:21:56;7.10;78.40
35463;DHT22;21578;47.892;9.970;2022-12-29T09:26:44;7.20;78.20
35463;DHT22;21578;47.892;9.970;2022-12-29T09:31:31;7.30;78.40
35463;DHT22;21578;47.892;9.970;2022-12-29T09:36:18;7.20;78.60
35463;DHT22;21578;47.892;9.970;2022-12-29T09:41:13;7.30;77.80
35463;DHT22;21578;47.892;9.970;2022-12-29T09:46:09;7.30;76.40
35463;DHT22;21578;47.892;9.970;2022-12-29T09:51:01;7.40;76.60
35463;DHT22;21578;47.892;9.970;2022-12-29T09:55:50;7.40;76.10
35463;DHT22;21578;47.892;9.970;2022-12-29T10:00:46;7.30;76.30
35463;DHT22;21578;47.892;9.970;2022-12-29T10:05:38;7.30;77.50
35463;DHT22;21578;47.892;9.970;2022-12-29T10:10:34;7.30;78.20
35463;DHT22;21578;47.892;9.970;2022-12-29T10:15:33;7.40;77.70
35463;DHT22;21578;47.892;9.970;2022-12-29T10:20:28;7.50;77.10
35463;DHT22;21578;47.892;9.970;2022-12-29T10:25:19;7.60;76.90
35463;DHT22;21578;47.892;9.970;2022-12-29T10:30:12;7.70;76.70
35463;DHT22;21578;47.892;9.970;2022-12-29T10:35:05;8.00;77.20
35463;DHT22;21578;47.892;9.970;2022-12-29T10:39:58;8.10;76.60
35463;DHT22;21578;47.892;9.970;2022-12-29T10:44:46;8.40;75.90
35463;DHT22;21578;47.892;9.970;2022-12-29T10:49:39;8.70;73.70
35463;DHT22;21578;47.892;9.970;2022-12-29T10:54:31;9.00;75.00
35463;DHT22;21578;47.892;9.970;2022-12-29T10:59:22;9.30;72.90
35463;DHT22;21578;47.892;9.970;2022-12-29T11:04:25;9.40;73.40
35463;DHT22;21578;47.892;9.970;2022-12-29T11:09:19;9.50;72.80
35463;DHT22;21578;47.892;9.970;2022-12-29T11:14:13;9.60;72.50
35463;DHT22;21578;47.892;9.970;2022-12-29T11:19:02;9.60;71.80
35463;DHT22;21578;47.892;9.970;2022-12-29T11:23:59;9.80;72.10
35463;DHT22;21578;47.892;9.970;2022-12-29T11:28:47;9.90;73.10
35463;DHT22;21578;47.892;9.970;2022-12-29T11:33:50;9.90;73.50
35463;DHT22;21578;47.892;9.970;2022-12-29T11:38:40;9.80;73.80
35463;DHT22;21578;47.892;9.970;2022-12-29T11:43:30;9.80;73.70
35463;DHT22;21578;47.892;9.970;2022-12-29T11:48:20;9.80;74.30
35463;DHT22;21578;47.892;9.970;2022-12-29T11:53:16;9.90;74.70
35463;DHT22;21578;47.892;9.970;2022-12-29T11:58:13;10.00;74.80
35463;DHT22;21578;47.892;9.970;2022-12-29T12:03:03;10.10;73.50
35463;DHT22;21578;47.892;9.970;2022-12-29T12:07:55;10.10;74.10
35463;DHT22;21578;47.892;9.970;2022-12-29T12:12:48;10.20;73.80
35463;DHT22;21578;47.892;9.970;2022-12-29T12:17:47;10.30;75.00
35463;DHT22;21578;47.892;9.970;2022-12-29T12:22:38;10.30;75.40
35463;DHT22;21578;47.892;9.970;2022-12-29T12:27:33;10.40;75.50
35463;DHT22;21578;47.892;9.970;2022-12-29T12:32:30;10.40;76.30
35463;DHT22;21578;47.892;9.970;2022-12-29T12:37:55;10.50;76.60
35463;DHT22;21578;47.892;9.970;2022-12-29T12:42:52;10.50;77.20
35463;DHT22;21578;47.892;9.970;2022-12-29T12:47:54;10.50;78.10
35463;DHT22;21578;47.892;9.970;2022-12-29T12:58:11;10.40;79.60
35463;DHT22;21578;47.892;9.970;2022-12-29T13:03:08;10.30;81.00
35463;DHT22;21578;47.892;9.970;2022-12-29T13:08:07;10.20;80.70
35463;DHT22;21578;47.892;9.970;2022-12-29T13:13:26;10.10;81.90
35463;DHT22;21578;47.892;9.970;2022-12-29T13:18:22;10.00;83.30
35463;DHT22;21578;47.892;9.970;2022-12-29T13:23:19;9.90;85.40
35463;DHT22;21578;47.892;9.970;2022-12-29T13:28:17;9.80;86.50
35463;DHT22;21578;47.892;9.970;2022-12-29T13:33:13;9.80;87.20
35463;DHT22;21578;47.892;9.970;2022-12-29T13:38:11;9.70;87.90
35463;DHT22;21578;47.892;9.970;2022-12-29T13:43:00;9.70;88.20
35463;DHT22;21578;47.892;9.970;2022-12-29T13:47:52;9.70;88.10
35463;DHT22;21578;47.892;9.970;2022-12-29T13:52:45;9.70;88.20
35463;DHT22;21578;47.892;9.970;2022-12-29T13:57:41;9.70;88.30
35463;DHT22;21578;47.892;9.970;2022-12-29T14:02:37;9.70;88.10
35463;DHT22;21578;47.892;9.970;2022-12-29T14:07:29;9.70;87.30
35463;DHT22;21578;47.892;9.970;2022-12-29T14:12:29;9.60;87.60
35463;DHT22;21578;47.892;9.970;2022-12-29T14:17:20;9.70;87.60
35463;DHT22;21578;47.892;9.970;2022-12-29T14:22:08;9.60;88.60
35463;DHT22;21578;47.892;9.970;2022-12-29T14:26:58;9.60;89.00
35463;DHT22;21578;47.892;9.970;2022-12-29T14:31:45;9.70;88.90
35463;DHT22;21578;47.892;9.970;2022-12-29T14:36:34;9.60;89.30
35463;DHT22;21578;47.892;9.970;2022-12-29T14:41:28;9.60;89.60
35463;DHT22;21578;47.892;9.970;2022-12-29T14:46:17;9.60;89.20
35463;DHT22;21578;47.892;9.970;2022-12-29T14:51:29;9.60;89.50
35463;DHT22;21578;47.892;9.970;2022-12-29T14:56:18;9.60;91.90
35463;DHT22;21578;47.892;9.970;2022-12-29T15:01:18;9.50;91.50
35463;DHT22;21578;47.892;9.970;2022-12-29T15:06:07;9.50;91.90
35463;DHT22;21578;47.892;9.970;2022-12-29T15:11:00;9.40;92.70
35463;DHT22;21578;47.892;9.970;2022-12-29T15:15:48;9.40;93.20
35463;DHT22;21578;47.892;9.970;2022-12-29T15:20:37;9.30;93.40
35463;DHT22;21578;47.892;9.970;2022-12-29T15:25:24;9.30;93.70
35463;DHT22;21578;47.892;9.970;2022-12-29T15:30:13;9.40;93.90
35463;DHT22;21578;47.892;9.970;2022-12-29T15:35:00;9.40;93.90
35463;DHT22;21578;47.892;9.970;2022-12-29T15:40:22;9.30;94.10
35463;DHT22;21578;47.892;9.970;2022-12-29T15:45:11;9.30;93.60
35463;DHT22;21578;47.892;9.970;2022-12-29T15:50:02;9.30;93.40
35463;DHT22;21578;47.892;9.970;2022-12-29T15:54:52;9.20;94.00
35463;DHT22;21578;47.892;9.970;2022-12-29T15:59:46;9.20;94.30
35463;DHT22;21578;47.892;9.970;2022-12-29T16:04:33;9.40;92.70
35463;DHT22;21578;47.892;9.970;2022-12-29T16:09:30;9.40;92.90
35463;DHT22;21578;47.892;9.970;2022-12-29T16:14:20;9.40;92.90
35463;DHT22;21578;47.892;9.970;2022-12-29T16:19:13;9.40;92.50
35463;DHT22;21578;47.892;9.970;2022-12-29T16:24:05;9.40;92.90
35463;DHT22;21578;47.892;9.970;2022-12-29T16:28:56;9.30;93.10
35463;DHT22;21578;47.892;9.970;2022-12-29T16:33:46;9.30;93.60
35463;DHT22;21578;47.892;9.970;2022-12-29T16:38:35;9.30;93.90
35463;DHT22;21578;47.892;9.970;2022-12-29T16:43:23;9.30;94.20
35463;DHT22;21578;47.892;9.970;2022-12-29T16:48:18;9.30;94.40
35463;DHT22;21578;47.892;9.970;2022-12-29T16:53:15;9.20;94.40
35463;DHT22;21578;47.892;9.970;2022-12-29T16:58:11;9.10;94.00
35463;DHT22;21578;47.892;9.970;2022-12-29T17:03:03;9.20;93.60
35463;DHT22;21578;47.892;9.970;2022-12-29T17:07:50;9.10;94.00
35463;DHT22;21578;47.892;9.970;2022-12-29T17:12:38;9.20;93.80
35463;DHT22;21578;47.892;9.970;2022-12-29T17:17:31;9.10;94.40
35463;DHT22;21578;47.892;9.970;2022-12-29T17:22:21;9.00;94.80
35463;DHT22;21578;47.892;9.970;2022-12-29T17:27:20;8.90;95.80
35463;DHT22;21578;47.892;9.970;2022-12-29T17:32:12;8.90;96.60
35463;DHT22;21578;47.892;9.970;2022-12-29T17:37:01;8.80;96.60
35463;DHT22;21578;47.892;9.970;2022-12-29T17:41:49;8.90;96.60
35463;DHT22;21578;47.892;9.970;2022-12-29T17:46:36;8.90;96.60
35463;DHT22;21578;47.892;9.970;2022-12-29T17:51:23;8.90;96.60
35463;DHT22;21578;47.892;9.970;2022-12-29T17:56:11;8.80;96.60
35463;DHT22;21578;47.892;9.970;2022-12-29T18:01:00;8.80;96.60
35463;DHT22;21578;47.892;9.970;2022-12-29T18:05:48;8.70;96.60
35463;DHT22;21578;47.892;9.970;2022-12-29T18:10:35;8.60;96.60
35463;DHT22;21578;47.892;9.970;2022-12-29T18:15:26;8.50;96.60
35463;DHT22;21578;47.892;9.970;2022-12-29T18:20:13;8.50;96.60
35463;DHT22;21578;47.892;9.970;2022-12-29T18:25:01;8.50;96.60
35463;DHT22;21578;47.892;9.970;2022-12-29T18:29:49;8.50;96.60
35463;DHT22;21578;47.892;9.970;2022-12-29T18:34:37;8.50;96.60
35463;DHT22;21578;47.892;9.970;2022-12-29T18:39:25;8.60;96.60
35463;DHT22;21578;47.892;9.970;2022-12-29T18:44:12;8.60;96.60
35463;DHT22;21578;47.892;9.970;2022-12-29T18:48:59;8.40;96.60
35463;DHT22;21578;47.892;9.970;2022-12-29T18:53:48;8.30;96.60
35463;DHT22;21578;47.892;9.970;2022-12-29T18:58:35;8.20;96.60
35463;DHT22;21578;47.892;9.970;2022-12-29T19:03:23;8.00;96.60
35463;DHT22;21578;47.892;9.970;2022-12-29T19:08:13;7.90;96.60
35463;DHT22;21578;47.892;9.970;2022-12-29T19:13:01;7.80;96.60
35463;DHT22;21578;47.892;9.970;2022-12-29T19:17:48;7.90;96.60
35463;DHT22;21578;47.892;9.970;2022-12-29T19:22:35;7.80;96.60
35463;DHT22;21578;47.892;9.970;2022-12-29T19:27:23;7.80;96.60
35463;DHT22;21578;47.892;9.970;2022-12-29T19:32:11;7.80;96.60
35463;DHT22;21578;47.892;9.970;2022-12-29T19:36:58;7.80;96.60
35463;DHT22;21578;47.892;9.970;2022-12-29T19:41:46;7.70;96.60
35463;DHT22;21578;47.892;9.970;2022-12-29T19:46:33;7.80;96.60
35463;DHT22;21578;47.892;9.970;2022-12-29T19:51:21;7.70;96.60
35463;DHT22;21578;47.892;9.970;2022-12-29T19:56:09;7.70;96.60
35463;DHT22;21578;47.892;9.970;2022-12-29T20:01:03;7.60;96.60
35463;DHT22;21578;47.892;9.970;2022-12-29T20:05:50;7.50;96.60
35463;DHT22;21578;47.892;9.970;2022-12-29T20:10:39;7.50;96.60
35463;DHT22;21578;47.892;9.970;2022-12-29T20:15:26;7.50;96.60
35463;DHT22;21578;47.892;9.970;2022-12-29T20:20:13;7.50;96.60
35463;DHT22;21578;47.892;9.970;2022-12-29T20:25:00;7.50;96.60
35463;DHT22;21578;47.892;9.970;2022-12-29T20:29:48;7.60;96.60
35463;DHT22;21578;47.892;9.970;2022-12-29T20:34:35;7.40;96.60
35463;DHT22;21578;47.892;9.970;2022-12-29T20:39:22;7.30;96.60
35463;DHT22;21578;47.892;9.970;2022-12-29T20:44:09;7.30;96.60
35463;DHT22;21578;47.892;9.970;2022-12-29T20:48:58;7.40;96.60
35463;DHT22;21578;47.892;9.970;2022-12-29T20:53:45;7.30;96.60
35463;DHT22;21578;47.892;9.970;2022-12-29T20:58:32;7.30;96.60
35463;DHT22;21578;47.892;9.970;2022-12-29T21:03:20;7.30;96.60
35463;DHT22;21578;47.892;9.970;2022-12-29T21:08:08;7.30;96.60
35463;DHT22;21578;47.892;9.970;2022-12-29T21:12:56;7.30;96.60
35463;DHT22;21578;47.892;9.970;2022-12-29T21:17:43;7.20;96.60
35463;DHT22;21578;47.892;9.970;2022-12-29T21:22:30;7.20;96.60
35463;DHT22;21578;47.892;9.970;2022-12-29T21:27:18;7.30;96.60
35463;DHT22;21578;47.892;9.970;2022-12-29T21:32:05;7.30;96.60
35463;DHT22;21578;47.892;9.970;2022-12-29T21:36:52;7.30;96.60
35463;DHT22;21578;47.892;9.970;2022-12-29T21:41:39;7.20;96.60
35463;DHT22;21578;47.892;9.970;2022-12-29T21:46:27;7.20;96.60
35463;DHT22;21578;47.892;9.970;2022-12-29T21:51:14;7.20;96.60
35463;DHT22;21578;47.892;9.970;2022-12-29T21:56:19;7.20;96.60
35463;DHT22;21578;47.892;9.970;2022-12-29T22:01:10;7.10;96.60
35463;DHT22;21578;47.892;9.970;2022-12-29T22:06:16;7.20;96.60
35463;DHT22;21578;47.892;9.970;2022-12-29T22:11:21;7.10;96.60
35463;DHT22;21578;47.892;9.970;2022-12-29T22:16:26;7.10;96.60
35463;DHT22;21578;47.892;9.970;2022-12-29T22:21:13;7.20;96.60
35463;DHT22;21578;47.892;9.970;2022-12-29T22:26:03;7.10;96.60
35463;DHT22;21578;47.892;9.970;2022-12-29T22:30:50;7.20;96.60
35463;DHT22;21578;47.892;9.970;2022-12-29T22:35:37;7.10;96.60
35463;DHT22;21578;47.892;9.970;2022-12-29T22:40:24;7.10;96.60
35463;DHT22;21578;47.892;9.970;2022-12-29T22:45:13;7.10;96.60
35463;DHT22;21578;47.892;9.970;2022-12-29T22:50:00;7.00;96.60
35463;DHT22;21578;47.892;9.970;2022-12-29T22:54:46;7.10;96.60
35463;DHT22;21578;47.892;9.970;2022-12-29T22:59:33;7.00;96.60
35463;DHT22;21578;47.892;9.970;2022-12-29T23:04:22;7.00;96.60
35463;DHT22;21578;47.892;9.970;2022-12-29T23:09:09;6.90;96.60
35463;DHT22;21578;47.892;9.970;2022-12-29T23:14:00;6.90;96.60
35463;DHT22;21578;47.892;9.970;2022-12-29T23:18:49;6.90;96.60
35463;DHT22;21578;47.892;9.970;2022-12-29T23:23:37;6.90;96.60
35463;DHT22;21578;47.892;9.970;2022-12-29T23:28:41;6.90;96.60
35463;DHT22;21578;47.892;9.970;2022-12-29T23:33:28;6.90;96.60
35463;DHT22;21578;47.892;9.970;2022-12-29T23:38:15;6.80;96.60
35463;DHT22;21578;47.892;9.970;2022-12-29T23:43:05;6.70;96.60
35463;DHT22;21578;47.892;9.970;2022-12-29T23:47:52;6.70;96.60
35463;DHT22;21578;47.892;9.970;2022-12-29T23:52:39;6.50;96.60
35463;DHT22;21578;47.892;9.970;2022-12-29T23:57:26;6.50;96.60
